createdAt,value
2023-03-01T00:00:53.123Z,6.50
2023-03-01T00:11:04.111Z,6.40
2023-03-01T00:21:09.529Z,6.30
2023-03-01T00:31:15.694Z,6.10
2023-03-01T00:41:23.772Z,6.20
2023-03-01T00:51:28.950Z,6.30
2023-03-01T01:01:34.615Z,6.20
2023-03-01T01:11:38.734Z,6.10
2023-03-01T01:21:44.866Z,6.30
2023-03-01T01:31:48.923Z,6.10
2023-03-01T01:41:54.116Z,5.60
2023-03-01T01:52:06.404Z,5.90
2023-03-01T02:02:11.672Z,5.40
2023-03-01T02:12:17.388Z,5.30
2023-03-01T02:22:26.392Z,5.30
2023-03-01T02:32:31.903Z,5.20
2023-03-01T02:42:41.115Z,4.90
2023-03-01T02:52:54.570Z,5.00
2023-03-01T03:02:59.178Z,4.90
2023-03-01T03:13:06.043Z,4.80
2023-03-01T03:23:09.870Z,4.50
2023-03-01T03:33:15.325Z,4.50
2023-03-01T03:43:21.549Z,4.50
2023-03-01T03:53:28.942Z,4.40
2023-03-01T04:03:34.434Z,4.40
2023-03-01T04:13:39.651Z,4.40
2023-03-01T04:23:43.690Z,4.30
2023-03-01T04:33:52.549Z,4.40
2023-03-01T04:43:56.421Z,4.50
2023-03-01T04:54:02.774Z,4.40
2023-03-01T05:04:06.850Z,4.30
2023-03-01T05:14:12.916Z,4.20
2023-03-01T05:24:16.622Z,4.10
2023-03-01T05:34:24.022Z,4.10
2023-03-01T05:44:30.034Z,4.10
2023-03-01T05:54:35.295Z,4.00
2023-03-01T06:04:38.984Z,3.90
2023-03-01T06:14:44.057Z,3.80
2023-03-01T06:24:47.839Z,3.70
2023-03-01T06:34:53.293Z,3.60
2023-03-01T06:44:57.291Z,3.60
2023-03-01T06:55:03.183Z,3.70
2023-03-01T07:05:07.503Z,3.70
2023-03-01T07:15:13.275Z,4.00
2023-03-01T07:25:17.058Z,4.30
2023-03-01T07:35:23.204Z,4.60
2023-03-01T07:45:27.813Z,5.00
2023-03-01T07:55:32.988Z,5.20
2023-03-01T08:05:36.800Z,5.60
2023-03-01T08:15:41.864Z,5.90
2023-03-01T08:25:45.559Z,6.20
2023-03-01T08:35:50.674Z,6.50
2023-03-01T08:45:54.636Z,6.90
2023-03-01T08:56:03.712Z,7.20
2023-03-01T09:06:09.500Z,7.50
2023-03-01T09:16:16.299Z,7.80
2023-03-01T09:26:23.013Z,8.20
2023-03-01T09:36:28.196Z,8.60
2023-03-01T09:46:36.328Z,9.40
2023-03-01T09:56:44.238Z,10.10
2023-03-01T10:06:54.818Z,10.20
2023-03-01T10:17:04.407Z,10.40
2023-03-01T10:27:13.361Z,10.30
2023-03-01T10:37:22.092Z,10.60
2023-03-01T10:47:27.249Z,10.80
2023-03-01T10:57:42.447Z,11.00
2023-03-01T11:07:50.483Z,12.10
2023-03-01T11:18:05.721Z,12.50
2023-03-01T11:28:19.367Z,13.10
2023-03-01T11:38:26.480Z,14.10
2023-03-01T11:48:50.407Z,14.70
2023-03-01T11:59:22.226Z,13.90
2023-03-01T12:09:52.475Z,15.30
2023-03-01T12:20:15.392Z,15.10
2023-03-01T12:30:32.265Z,14.60
2023-03-01T12:41:09.300Z,14.70
2023-03-01T12:51:16.324Z,14.20
2023-03-01T13:01:30.205Z,14.90
2023-03-01T13:11:35.949Z,14.70
2023-03-01T13:21:41.203Z,15.80
2023-03-01T13:32:02.916Z,17.10
2023-03-01T13:42:40.308Z,17.20
2023-03-01T13:52:46.346Z,17.30
2023-03-01T14:03:06.216Z,16.30
2023-03-01T14:13:29.593Z,16.40
2023-03-01T14:23:36.924Z,16.30
2023-03-01T14:33:42.367Z,16.90
2023-03-01T14:43:49.773Z,16.60
2023-03-01T14:53:53.983Z,17.00
2023-03-01T15:03:59.969Z,17.00
2023-03-01T15:14:03.758Z,16.80
2023-03-01T15:24:21.766Z,16.90
2023-03-01T15:34:26.784Z,17.50
2023-03-01T15:44:42.817Z,16.70
2023-03-01T15:54:47.366Z,16.80
2023-03-01T16:04:52.737Z,15.70
2023-03-01T16:14:58.846Z,14.50
2023-03-01T16:25:04.779Z,14.50
2023-03-01T16:35:09.233Z,13.30
2023-03-01T16:45:23.743Z,12.40
2023-03-01T16:55:28.657Z,11.90
2023-03-01T17:05:34.286Z,11.80
2023-03-01T17:15:40.341Z,11.00
2023-03-01T17:25:45.769Z,10.60
2023-03-01T17:35:50.140Z,10.20
2023-03-01T17:45:55.392Z,10.00
2023-03-01T17:56:03.205Z,10.00
2023-03-01T18:06:14.596Z,9.80
2023-03-01T18:16:19.752Z,9.60
2023-03-01T18:26:25.861Z,8.80
2023-03-01T18:36:31.786Z,8.00
2023-03-01T18:46:39.210Z,7.70
2023-03-01T18:56:43.490Z,7.30
2023-03-01T19:06:48.594Z,7.20
2023-03-01T19:16:52.611Z,7.00
2023-03-01T19:26:57.900Z,6.80
2023-03-01T19:37:01.543Z,6.50
2023-03-01T19:47:10.491Z,6.60
2023-03-01T19:57:14.890Z,6.50
2023-03-01T20:07:20.207Z,6.60
2023-03-01T20:17:24.438Z,6.90
2023-03-01T20:27:29.538Z,7.60
2023-03-01T20:37:33.178Z,7.40
2023-03-01T20:47:38.201Z,7.10
2023-03-01T20:57:44.260Z,6.80
2023-03-01T21:07:49.324Z,6.70
2023-03-01T21:17:52.965Z,6.60
2023-03-01T21:27:58.197Z,6.60
2023-03-01T21:38:02.270Z,6.70
2023-03-01T21:48:07.591Z,6.70
2023-03-01T21:58:11.394Z,6.80
2023-03-01T22:08:16.507Z,6.70
2023-03-01T22:18:20.072Z,6.70
2023-03-01T22:28:25.171Z,6.60
2023-03-01T22:38:29.220Z,6.50
2023-03-01T22:48:34.355Z,6.50
2023-03-01T22:58:38.140Z,6.30
2023-03-01T23:08:43.750Z,6.30
2023-03-01T23:18:48.094Z,6.30
2023-03-01T23:28:53.152Z,6.00
2023-03-01T23:38:58.851Z,5.80
2023-03-01T23:49:04.934Z,5.70
2023-03-01T23:59:12.165Z,5.80
